Time;durP1;ratioP1;P1;durP2;ratioP2;P2;SDS_P1;SDS_P2;PMS_P1;PMS_P2;Temp;Humidity;BMP_temperature;BMP_pressure;BME280_temperature;BME280_humidity;BME280_pressure;Samples;Min_cycle;Max_cycle;Signal;HPM_P1;HPM_P2
2022/06/21 00:00:20;;;;;;;;;12.50;11.75;;;;;19.38;52.38;101118.66;6274346;22;45620;-85
2022/06/21 00:02:46;;;;;;;;;12.50;12.50;;;;;19.36;52.32;101106.50;6246107;22;45335;-85
2022/06/21 00:05:23;;;;;;;;;14.25;11.75;;;;;19.33;51.89;101100.47;6246521;22;45345;-85
2022/06/21 00:07:48;;;;;;;;;17.50;14.50;;;;;19.32;53.37;101113.75;6246359;22;45576;-85
2022/06/21 00:10:16;;;;;;;;;13.75;12.50;;;;;19.29;51.97;101111.28;6221064;22;45271;-86
2022/06/21 00:12:42;;;;;;;;;12.00;10.00;;;;;19.29;52.19;101103.34;6274399;22;45167;-85
2022/06/21 00:15:08;;;;;;;;;10.75;10.75;;;;;19.27;51.83;101094.69;6273454;22;59836;-85
2022/06/21 00:17:33;;;;;;;;;11.75;10.00;;;;;19.23;52.09;101088.75;6273123;22;46410;-85
2022/06/21 00:19:58;;;;;;;;;13.25;11.75;;;;;19.22;53.64;101078.28;6272991;22;65420;-85
2022/06/21 00:22:24;;;;;;;;;13.00;12.00;;;;;19.19;52.45;101076.69;6273215;22;62735;-85
2022/06/21 00:24:51;;;;;;;;;10.50;10.50;;;;;19.18;52.23;101082.88;6273667;22;50731;-85
2022/06/21 00:27:19;;;;;;;;;11.50;10.00;;;;;19.16;52.12;101074.22;6273352;22;47418;-85
2022/06/21 00:29:44;;;;;;;;;14.00;10.00;;;;;19.14;52.21;101062.91;6273948;22;45273;-85
2022/06/21 00:32:15;;;;;;;;;10.00;8.75;;;;;19.13;52.27;101080.53;6246676;22;45223;-85
2022/06/21 00:34:42;;;;;;;;;13.00;10.50;;;;;19.12;52.74;101076.19;6246275;22;45437;-86
2022/06/21 00:37:13;;;;;;;;;9.75;9.25;;;;;19.11;52.46;101074.50;6246953;22;45315;-85
2022/06/21 00:39:39;;;;;;;;;9.25;8.25;;;;;19.09;52.22;101081.66;6246123;22;45338;-85
2022/06/21 00:42:16;;;;;;;;;9.25;9.25;;;;;19.05;52.80;101074.00;6273414;22;45563;-85
2022/06/21 00:44:46;;;;;;;;;10.25;9.25;;;;;19.00;52.80;101074.28;6246366;22;45425;-85
2022/06/21 00:47:25;;;;;;;;;12.75;9.50;;;;;18.94;52.24;101083.41;6246680;22;46269;-85
2022/06/21 00:49:55;;;;;;;;;12.50;9.75;;;;;18.91;52.07;101082.75;6246521;22;45383;-85
2022/06/21 00:52:43;;;;;;;;;9.25;9.25;;;;;18.84;52.74;101069.06;6246612;22;45332;-85
2022/06/21 00:55:24;;;;;;;;;6.25;6.25;;;;;18.82;53.14;101072.72;6246649;22;45413;-86
2022/06/21 00:57:52;;;;;;;;;10.00;10.00;;;;;18.77;52.70;101068.50;6273835;22;46440;-85
2022/06/21 01:00:39;;;;;;;;;8.75;8.75;;;;;18.75;52.93;101066.91;6273789;22;45698;-86
2022/06/21 01:03:10;;;;;;;;;7.00;7.00;;;;;18.70;52.81;101075.09;6246450;22;45310;-86
2022/06/21 01:05:39;;;;;;;;;11.75;10.00;;;;;18.65;53.24;101090.34;6246231;22;45275;-86
2022/06/21 01:08:05;;;;;;;;;7.00;7.00;;;;;18.63;52.76;101094.84;6273302;22;45505;-86
2022/06/21 01:10:30;;;;;;;;;6.50;6.50;;;;;18.63;52.44;101094.84;6246788;22;45334;-86
2022/06/21 01:13:02;;;;;;;;;8.75;8.00;;;;;18.63;52.74;101089.56;6273244;22;58234;-85
2022/06/21 01:15:34;;;;;;;;;6.75;6.50;;;;;18.65;52.82;101092.13;6245665;22;45465;-86
2022/06/21 01:18:02;;;;;;;;;7.50;7.50;;;;;18.68;53.11;101098.03;6246513;22;46471;-86
2022/06/21 01:20:31;;;;;;;;;7.50;7.00;;;;;18.74;53.63;101094.25;6246703;22;45644;-85
2022/06/21 01:23:12;;;;;;;;;6.50;6.50;;;;;18.79;53.25;101089.53;6246758;22;45330;-86
2022/06/21 01:25:57;;;;;;;;;7.00;7.00;;;;;18.80;52.79;101090.41;6246966;22;45320;-86
2022/06/21 01:28:22;;;;;;;;;10.00;7.00;;;;;18.78;52.99;101087.84;6246139;22;45429;-85
2022/06/21 01:30:55;;;;;;;;;7.25;6.25;;;;;18.80;52.39;101083.31;6272906;22;64565;-85
2022/06/21 01:33:33;;;;;;;;;6.75;6.75;;;;;18.81;52.89;101081.56;6220728;22;45247;-85
2022/06/21 01:36:04;;;;;;;;;6.00;6.00;;;;;18.75;52.57;101085.38;6246086;22;45481;-86
2022/06/21 01:38:33;;;;;;;;;9.75;6.50;;;;;18.72;53.31;101088.19;6246346;22;46180;-86
2022/06/21 01:41:05;;;;;;;;;6.25;5.50;;;;;18.69;52.88;101088.38;6273640;22;45320;-85
2022/06/21 01:43:33;;;;;;;;;8.25;7.00;;;;;18.69;52.54;101091.00;6246573;22;45306;-85
2022/06/21 01:46:02;;;;;;;;;5.50;5.50;;;;;18.68;52.99;101098.03;6246661;22;45283;-85
2022/06/21 01:48:54;;;;;;;;;9.75;8.00;;;;;18.70;53.13;101103.25;6245689;22;45290;-85
2022/06/21 01:51:23;;;;;;;;;6.75;6.00;;;;;18.63;53.49;101115.94;6270662;22;45815;-87
2022/06/21 01:53:49;;;;;;;;;8.00;6.25;;;;;18.62;53.84;101118.66;6245494;22;45265;-86
2022/06/21 01:56:25;;;;;;;;;7.25;7.25;;;;;18.65;53.70;101124.59;6246345;22;45252;-86
2022/06/21 01:58:55;;;;;;;;;7.00;7.00;;;;;18.64;54.21;101138.72;6273485;22;46124;-86
2022/06/21 02:01:33;;;;;;;;;8.50;7.00;;;;;18.64;53.97;101156.31;6273381;22;45319;-86
2022/06/21 02:04:01;;;;;;;;;9.75;7.00;;;;;18.64;54.52;101170.34;6273253;22;45278;-85
2022/06/21 02:06:31;;;;;;;;;8.00;7.25;;;;;18.61;53.68;101177.59;6246197;22;45282;-86
2022/06/21 02:09:13;;;;;;;;;6.50;6.50;;;;;18.65;53.90;101193.16;6246226;22;46724;-85
2022/06/21 02:11:49;;;;;;;;;8.75;8.50;;;;;18.72;53.71;101188.38;6273216;22;45267;-86
2022/06/21 02:14:30;;;;;;;;;7.00;6.75;;;;;18.79;54.44;101175.72;6246490;22;45355;-85
2022/06/21 02:16:56;;;;;;;;;8.00;6.50;;;;;18.85;53.48;101181.53;6248592;22;45378;-85
2022/06/21 02:19:32;;;;;;;;;9.00;8.00;;;;;18.90;53.47;101182.09;6273065;22;46459;-84
2022/06/21 02:21:58;;;;;;;;;11.00;8.00;;;;;18.93;53.22;101174.03;6246126;22;45386;-84
2022/06/21 02:24:28;;;;;;;;;11.25;8.25;;;;;18.95;52.90;101163.38;6272504;22;65188;-82
2022/06/21 02:26:53;;;;;;;;;6.25;6.25;;;;;18.98;53.08;101154.44;6246543;22;45258;-85
2022/06/21 02:29:19;;;;;;;;;8.00;8.00;;;;;18.98;53.09;101142.13;6244956;22;67428;-85
2022/06/21 02:31:44;;;;;;;;;10.00;7.00;;;;;19.00;53.30;101137.59;6272285;22;59125;-86
2022/06/21 02:34:29;;;;;;;;;8.00;8.00;;;;;18.99;52.79;101127.97;6272250;22;67130;-86
2022/06/21 02:36:57;;;;;;;;;6.50;6.00;;;;;18.97;53.14;101110.56;6246377;22;45517;-85
2022/06/21 02:39:25;;;;;;;;;10.50;8.50;;;;;18.94;52.85;101099.25;6245895;22;45385;-85
2022/06/21 02:41:56;;;;;;;;;8.50;7.75;;;;;18.92;52.67;101085.25;6245749;22;45690;-85
2022/06/21 02:44:26;;;;;;;;;9.25;8.00;;;;;18.90;52.76;101076.59;6246360;22;45323;-86
2022/06/21 02:47:01;;;;;;;;;8.00;7.00;;;;;18.89;53.28;101067.00;6245925;22;45315;-85
2022/06/21 02:49:32;;;;;;;;;9.75;6.75;;;;;18.89;53.02;101071.44;6245452;22;46635;-86
2022/06/21 02:52:02;;;;;;;;;9.50;8.00;;;;;18.86;52.78;101075.09;6245567;22;45623;-86
2022/06/21 02:54:43;;;;;;;;;9.00;7.00;;;;;18.84;52.94;101078.75;6245665;22;45315;-86
2022/06/21 02:57:17;;;;;;;;;7.50;7.00;;;;;18.80;53.55;101069.31;6245122;22;45480;-85
2022/06/21 02:59:43;;;;;;;;;8.75;8.00;;;;;18.76;53.43;101068.63;6245756;22;45362;-86
2022/06/21 03:02:15;;;;;;;;;12.00;9.00;;;;;18.72;53.73;101062.69;6246080;22;45755;-85
2022/06/21 03:04:49;;;;;;;;;9.00;9.00;;;;;18.68;53.49;101063.78;6245551;22;45240;-86
2022/06/21 03:07:38;;;;;;;;;9.00;8.50;;;;;18.69;53.50;101059.38;6248063;22;45248;-86
2022/06/21 03:10:06;;;;;;;;;8.00;8.00;;;;;18.67;53.00;101050.69;6246752;22;45351;-85
2022/06/21 03:12:33;;;;;;;;;7.00;7.00;;;;;18.65;52.97;101056.06;6246638;22;45317;-86
2022/06/21 03:15:03;;;;;;;;;8.75;7.50;;;;;18.62;53.36;101044.84;6246671;22;45319;-86
2022/06/21 03:17:37;;;;;;;;;7.00;7.00;;;;;18.57;53.22;101032.78;6221153;22;45235;-86
2022/06/21 03:20:03;;;;;;;;;9.50;9.25;;;;;18.55;53.31;101021.47;6246543;22;48099;-86
2022/06/21 03:22:33;;;;;;;;;7.25;7.25;;;;;18.54;52.77;101016.28;6246900;22;45322;-86
2022/06/21 03:25:00;;;;;;;;;7.50;6.00;;;;;18.51;53.48;101011.19;6246639;22;45294;-87
2022/06/21 03:27:38;;;;;;;;;9.50;7.00;;;;;18.48;53.26;101006.06;6247283;22;45307;-86
2022/06/21 03:30:04;;;;;;;;;7.00;7.00;;;;;18.44;53.12;100999.28;6246553;22;46419;-85
2022/06/21 03:32:33;;;;;;;;;8.00;8.00;;;;;18.41;53.41;100988.94;6273853;22;45944;-85
2022/06/21 03:34:58;;;;;;;;;7.00;7.00;;;;;18.33;53.54;100973.56;6247050;22;45283;-86
2022/06/21 03:37:24;;;;;;;;;9.25;6.25;;;;;18.29;53.19;100972.88;6247209;22;45307;-85
2022/06/21 03:42:37;;;;;;;;;7.00;6.50;;;;;18.25;53.49;100952.91;6274324;22;45227;-85
2022/06/21 03:45:07;;;;;;;;;11.50;7.00;;;;;18.21;54.11;100948.78;6246817;22;45269;-85
2022/06/21 03:47:40;;;;;;;;;9.75;7.25;;;;;18.17;53.66;100947.25;6221215;22;45537;-85
2022/06/21 03:50:14;;;;;;;;;7.75;7.75;;;;;18.15;54.58;100935.97;6246828;22;46465;-87
2022/06/21 03:52:47;;;;;;;;;8.00;8.00;;;;;18.15;54.44;100921.00;6246831;22;45362;-85
2022/06/21 03:55:24;;;;;;;;;10.75;9.00;;;;;18.14;53.98;100924.56;6246270;22;45295;-86
2022/06/21 03:58:01;;;;;;;;;8.00;6.50;;;;;18.11;54.39;100913.38;6273808;22;45260;-86
2022/06/21 04:00:32;;;;;;;;;5.25;5.25;;;;;18.07;55.35;100915.34;6273682;22;47450;-86
2022/06/21 04:03:04;;;;;;;;;8.50;7.50;;;;;18.03;54.38;100905.88;6246672;22;45915;-84
2022/06/21 04:05:59;;;;;;;;;7.75;7.00;;;;;18.04;54.48;100904.97;6246608;22;45276;-86
2022/06/21 04:08:33;;;;;;;;;9.00;8.00;;;;;18.01;54.89;100899.03;6246568;22;45225;-82
2022/06/21 04:11:06;;;;;;;;;10.50;8.00;;;;;17.99;55.67;100896.47;6246868;22;46443;-84
2022/06/21 04:13:52;;;;;;;;;8.75;6.00;;;;;17.97;54.94;100895.72;6273976;22;45276;-82
2022/06/21 04:16:27;;;;;;;;;8.50;7.00;;;;;17.94;55.67;100890.59;6274025;22;45322;-82
2022/06/21 04:19:00;;;;;;;;;13.25;9.50;;;;;17.89;55.80;100890.88;6246794;22;45294;-82
2022/06/21 04:21:37;;;;;;;;;10.25;9.00;;;;;17.79;57.30;100901.06;6247039;22;46331;-83
2022/06/21 04:24:14;;;;;;;;;11.00;9.00;;;;;17.74;57.19;100883.84;6247007;22;45241;-86
2022/06/21 04:26:49;;;;;;;;;10.75;9.00;;;;;17.71;56.85;100886.63;6274243;22;45349;-86
2022/06/21 04:29:20;;;;;;;;;8.75;8.75;;;;;17.67;57.59;100893.00;6273601;22;45461;-86
2022/06/21 04:31:55;;;;;;;;;7.75;7.50;;;;;17.63;56.63;100873.91;6274118;22;46155;-86
2022/06/21 04:34:26;;;;;;;;;9.25;8.75;;;;;17.58;57.26;100883.84;6246913;22;45382;-86
2022/06/21 04:37:13;;;;;;;;;14.75;11.25;;;;;17.52;58.23;100892.94;6273876;22;45323;-87
2022/06/21 04:39:59;;;;;;;;;9.50;9.00;;;;;17.46;58.88;100876.63;6246453;22;45460;-87
2022/06/21 04:42:51;;;;;;;;;9.25;8.00;;;;;17.40;59.47;100878.69;6246607;22;45386;-87
2022/06/21 04:45:29;;;;;;;;;9.50;9.50;;;;;17.37;59.75;100876.22;6246758;22;45251;-86
2022/06/21 04:48:09;;;;;;;;;13.50;12.00;;;;;17.36;60.72;100871.03;6273778;22;45313;-86
2022/06/21 04:50:42;;;;;;;;;14.50;11.75;;;;;17.33;59.63;100864.16;6273711;22;45433;-86
2022/06/21 04:53:30;;;;;;;;;12.25;11.00;;;;;17.31;59.07;100868.66;6273056;22;46317;-85
2022/06/21 04:56:20;;;;;;;;;16.50;10.75;;;;;17.25;59.84;100858.44;6264655;22;45701;-86
2022/06/21 04:58:47;;;;;;;;;10.50;8.75;;;;;17.21;59.95;100856.94;6273743;22;45313;-87
2022/06/21 05:01:32;;;;;;;;;12.75;10.75;;;;;17.18;61.04;100857.13;6247076;22;45261;-86
2022/06/21 05:04:01;;;;;;;;;11.50;10.00;;;;;17.18;61.02;100855.31;6250459;22;46358;-86
2022/06/21 05:06:27;;;;;;;;;12.00;9.50;;;;;17.20;60.43;100858.72;6273436;22;45673;-86
2022/06/21 05:08:53;;;;;;;;;13.50;10.50;;;;;17.18;60.69;100857.97;6273147;22;60859;-87
2022/06/21 05:11:20;;;;;;;;;13.50;10.75;;;;;17.17;60.45;100872.03;6273304;22;52691;-87
2022/06/21 05:13:48;;;;;;;;;11.50;8.00;;;;;17.17;60.30;100873.81;6245362;22;64179;-87
2022/06/21 05:16:30;;;;;;;;;13.00;10.25;;;;;17.14;60.85;100887.13;6246157;22;45577;-87
2022/06/21 05:19:03;;;;;;;;;10.25;10.25;;;;;17.14;59.96;100901.16;6246407;22;45287;-87
2022/06/21 05:21:37;;;;;;;;;10.75;10.00;;;;;17.17;61.44;100924.63;6246546;22;45363;-87
2022/06/21 05:24:03;;;;;;;;;14.00;12.50;;;;;17.18;62.20;100928.13;6246672;22;45424;-86
2022/06/21 05:26:46;;;;;;;;;13.25;8.75;;;;;17.25;61.63;100918.97;6246773;22;45347;-86
2022/06/21 05:29:18;;;;;;;;;13.50;11.00;;;;;17.34;60.81;100918.47;6246028;22;45231;-86
2022/06/21 05:31:45;;;;;;;;;12.25;12.25;;;;;17.43;60.92;100911.84;6248028;22;45457;-88
2022/06/21 05:34:18;;;;;;;;;13.00;10.75;;;;;17.52;60.53;100908.72;6247684;22;46953;-87
2022/06/21 05:37:35;;;;;;;;;12.00;9.25;;;;;17.61;59.64;100910.00;6220647;22;45247;-84
2022/06/21 05:40:07;;;;;;;;;12.25;9.50;;;;;17.63;59.84;100928.34;6209929;22;45204;-83
2022/06/21 05:42:33;;;;;;;;;9.75;9.50;;;;;17.65;59.70;100927.31;6184644;22;45240;-84
2022/06/21 05:45:32;;;;;;;;;16.00;11.75;;;;;17.69;59.62;100923.56;6208837;22;70647;-83
2022/06/21 05:47:59;;;;;;;;;13.00;9.00;;;;;17.73;59.41;100924.25;6192224;22;45200;-83
2022/06/21 05:50:29;;;;;;;;;15.00;12.00;;;;;17.78;58.82;100917.78;6209308;22;45337;-84
2022/06/21 05:52:58;;;;;;;;;11.25;11.00;;;;;17.88;58.97;100922.56;6185116;22;45249;-82
2022/06/21 05:55:32;;;;;;;;;13.75;12.00;;;;;17.95;59.18;100927.41;6210485;22;46648;-82
2022/06/21 05:58:03;;;;;;;;;14.75;9.75;;;;;18.01;58.77;100922.72;6209349;22;45699;-83
2022/06/21 06:00:33;;;;;;;;;12.75;10.00;;;;;17.99;58.07;100910.47;6184705;22;45284;-82
2022/06/21 06:03:05;;;;;;;;;10.25;10.25;;;;;17.95;59.13;100892.31;6209684;22;45592;-82
2022/06/21 06:05:34;;;;;;;;;10.75;9.75;;;;;17.92;58.59;100890.72;6183607;22;46392;-82
2022/06/21 06:08:13;;;;;;;;;13.50;11.50;;;;;17.94;58.74;100898.50;6210153;22;45341;-83
2022/06/21 06:10:41;;;;;;;;;13.75;10.50;;;;;17.95;58.87;100906.31;6218932;22;45239;-83
2022/06/21 06:13:11;;;;;;;;;14.25;12.25;;;;;17.98;59.54;100910.59;6246391;22;45397;-83
2022/06/21 06:15:48;;;;;;;;;12.25;10.75;;;;;18.07;58.84;100914.47;6246257;22;46227;-83
2022/06/21 06:18:30;;;;;;;;;14.75;10.75;;;;;18.13;60.36;100907.06;6245567;22;45248;-83
2022/06/21 06:21:00;;;;;;;;;13.25;10.75;;;;;18.25;58.90;100894.94;6245708;22;45337;-83
2022/06/21 06:23:29;;;;;;;;;14.50;12.00;;;;;18.35;58.40;100885.59;6273169;22;45231;-85
2022/06/21 06:26:02;;;;;;;;;15.25;13.50;;;;;18.35;58.98;100877.69;6272850;22;46193;-84
2022/06/21 06:28:49;;;;;;;;;14.50;12.25;;;;;18.31;57.56;100870.91;6245679;22;45787;-83
2022/06/21 06:31:28;;;;;;;;;13.25;12.00;;;;;18.29;58.20;100877.19;6273219;22;45326;-83
2022/06/21 06:33:59;;;;;;;;;13.25;13.25;;;;;18.28;59.07;100884.25;6245808;22;45490;-83
2022/06/21 06:36:32;;;;;;;;;16.25;13.50;;;;;18.30;57.84;100889.44;6245337;22;46141;-83
2022/06/21 06:38:58;;;;;;;;;10.00;9.75;;;;;18.29;58.26;100891.19;6246007;22;45680;-82
2022/06/21 06:41:59;;;;;;;;;15.00;11.25;;;;;18.30;58.82;100889.44;6245747;22;45326;-83
2022/06/21 06:44:27;;;;;;;;;17.50;15.00;;;;;18.31;58.62;100897.25;6245627;22;45121;-83
2022/06/21 06:46:55;;;;;;;;;11.75;11.50;;;;;18.31;58.39;100918.34;6245462;22;45338;-82
2022/06/21 06:49:32;;;;;;;;;16.25;11.00;;;;;18.31;58.65;100920.09;6239795;22;45318;-83
2022/06/21 06:52:11;;;;;;;;;15.25;12.25;;;;;18.33;58.01;100927.00;6240284;22;45322;-81
2022/06/21 06:54:39;;;;;;;;;13.50;10.25;;;;;18.36;57.78;100928.59;6240512;22;45418;-84
2022/06/21 06:57:15;;;;;;;;;10.25;9.25;;;;;18.36;57.94;100924.16;6240456;22;46109;-84
2022/06/21 06:59:43;;;;;;;;;17.25;10.00;;;;;18.43;58.28;100931.72;6242336;22;45728;-83
2022/06/21 07:02:19;;;;;;;;;15.25;12.50;;;;;18.50;58.47;100931.28;6239261;22;45199;-82
2022/06/21 07:04:47;;;;;;;;;13.00;11.00;;;;;18.59;58.31;100932.53;6240287;22;45268;-84
2022/06/21 07:07:22;;;;;;;;;15.50;11.00;;;;;18.65;58.40;100934.78;6240413;22;45457;-83
2022/06/21 07:09:51;;;;;;;;;14.75;12.50;;;;;18.66;58.16;100933.81;6241193;22;45271;-83
2022/06/21 07:12:23;;;;;;;;;14.00;12.25;;;;;18.70;57.88;100935.34;6242275;22;45253;-82
2022/06/21 07:14:49;;;;;;;;;13.00;11.50;;;;;18.73;57.66;100935.16;6239988;22;45315;-84
2022/06/21 07:17:35;;;;;;;;;16.00;11.75;;;;;18.70;57.59;100940.63;6239402;22;47264;-85
2022/06/21 07:20:00;;;;;;;;;15.00;15.00;;;;;18.72;57.35;100949.28;6240039;22;45365;-85
2022/06/21 07:22:31;;;;;;;;;19.50;14.50;;;;;18.77;57.72;100957.75;6242033;22;45278;-85
2022/06/21 07:25:03;;;;;;;;;19.50;16.00;;;;;18.88;58.34;100964.22;6240693;22;45447;-85
2022/06/21 07:27:30;;;;;;;;;14.75;13.25;;;;;19.01;57.60;100959.91;6241398;22;45645;-85
2022/06/21 07:30:02;;;;;;;;;14.00;13.00;;;;;19.17;57.72;100961.59;6239259;22;66293;-85
2022/06/21 07:32:32;;;;;;;;;15.50;14.50;;;;;19.28;57.64;100961.81;6239886;22;45345;-86
2022/06/21 07:35:16;;;;;;;;;18.50;16.00;;;;;19.39;57.12;100954.06;6265614;22;45469;-85
2022/06/21 07:37:51;;;;;;;;;22.75;16.25;;;;;19.50;56.60;100958.66;6241170;22;46360;-86
2022/06/21 07:40:28;;;;;;;;;16.25;14.25;;;;;19.61;56.88;100958.81;6240075;22;45337;-87
2022/06/21 07:43:11;;;;;;;;;20.50;13.25;;;;;19.73;55.98;100944.88;6239771;22;45245;-88
2022/06/21 07:45:53;;;;;;;;;16.00;14.50;;;;;19.78;55.98;100949.88;6239314;22;45464;-86
2022/06/21 07:48:27;;;;;;;;;14.50;12.50;;;;;19.84;56.16;100936.25;6242557;22;46441;-85
2022/06/21 07:50:56;;;;;;;;;12.25;11.75;;;;;19.90;56.25;100943.78;6272032;22;45352;-85
2022/06/21 07:53:29;;;;;;;;;14.75;13.25;;;;;20.04;55.67;100960.53;6241855;22;45267;-87
2022/06/21 07:56:14;;;;;;;;;18.00;14.50;;;;;20.20;56.64;100968.31;6273069;22;45368;-86
2022/06/21 07:58:59;;;;;;;;;20.75;13.00;;;;;20.46;55.24;100962.13;6273782;22;46495;-85
2022/06/21 08:07:38;;;;;;;;;14.25;13.00;;;;;21.66;53.47;100958.34;6250372;22;45291;-86
2022/06/21 08:10:13;;;;;;;;;13.25;12.50;;;;;21.79;53.45;100953.84;6244643;22;71073;-86
2022/06/21 08:12:38;;;;;;;;;13.25;12.50;;;;;21.87;52.15;100952.44;6245769;22;45359;-86
2022/06/21 08:15:04;;;;;;;;;15.50;14.50;;;;;21.81;52.56;100951.91;6244695;22;68097;-85
2022/06/21 08:17:39;;;;;;;;;16.25;13.25;;;;;21.72;52.62;100949.09;6245659;22;45402;-85
2022/06/21 08:20:18;;;;;;;;;12.25;10.25;;;;;21.75;53.02;100952.38;6245583;22;45605;-85
2022/06/21 08:22:49;;;;;;;;;14.00;13.00;;;;;21.99;52.70;100962.13;6246178;22;45602;-85
2022/06/21 08:25:26;;;;;;;;;14.00;14.00;;;;;22.19;52.63;100973.91;6246253;22;45332;-85
2022/06/21 08:27:57;;;;;;;;;16.50;14.50;;;;;22.36;52.26;100965.59;6272591;22;45361;-85
2022/06/21 08:30:28;;;;;;;;;16.00;15.50;;;;;22.55;51.21;100969.50;6272504;22;46362;-84
2022/06/21 08:33:02;;;;;;;;;16.25;14.50;;;;;22.76;51.46;100973.16;6244047;22;45296;-85
2022/06/21 08:35:40;;;;;;;;;17.50;16.50;;;;;22.95;51.13;100964.59;6246480;22;45249;-85
2022/06/21 08:38:10;;;;;;;;;19.50;17.00;;;;;23.09;50.68;100979.50;6245243;22;45343;-86
2022/06/21 08:40:39;;;;;;;;;16.25;16.00;;;;;23.21;49.77;100975.03;6245631;22;46669;-85
2022/06/21 08:43:38;;;;;;;;;13.00;13.00;;;;;23.41;51.28;100969.97;6244265;22;45383;-84
2022/06/21 08:46:26;;;;;;;;;14.75;13.75;;;;;23.67;49.74;100971.38;6272402;22;45286;-85
2022/06/21 08:48:52;;;;;;;;;16.50;13.25;;;;;23.98;48.62;100968.06;6245456;22;45452;-85
2022/06/21 08:51:41;;;;;;;;;13.67;12.67;;;;;24.08;48.63;100969.84;6245243;22;46258;-84
2022/06/21 08:54:18;;;;;;;;;16.25;14.50;;;;;24.11;48.83;100968.78;6271991;22;45587;-85
2022/06/21 08:56:50;;;;;;;;;13.00;12.25;;;;;24.10;48.01;100961.75;6246513;22;45351;-85
2022/06/21 08:59:49;;;;;;;;;17.50;17.50;;;;;24.07;49.27;100962.84;6246028;22;45282;-84
2022/06/21 09:02:40;;;;;;;;;18.75;16.50;;;;;24.07;48.16;100960.19;6273033;22;45357;-84
2022/06/21 09:05:16;;;;;;;;;13.25;12.25;;;;;24.06;48.39;100950.53;6246113;22;45581;-83
2022/06/21 09:08:07;;;;;;;;;16.50;14.50;;;;;24.10;48.36;100946.63;6246279;22;45691;-83
2022/06/21 09:10:40;;;;;;;;;18.00;15.00;;;;;24.15;48.21;100940.94;6272079;22;45334;-84
2022/06/21 09:13:18;;;;;;;;;13.25;13.00;;;;;24.12;47.63;100952.66;6272461;22;47208;-84
2022/06/21 09:15:46;;;;;;;;;17.75;16.00;;;;;24.05;47.26;100954.16;6272905;22;45652;-84
2022/06/21 09:18:17;;;;;;;;;14.75;13.00;;;;;23.99;47.09;100954.66;6272566;22;45230;-84
2022/06/21 09:21:01;;;;;;;;;17.25;14.00;;;;;24.03;47.63;100957.91;6273710;22;45325;-84
2022/06/21 09:23:51;;;;;;;;;17.00;14.00;;;;;24.16;47.57;100966.56;6272821;22;46533;-85
2022/06/21 09:26:28;;;;;;;;;13.25;13.00;;;;;24.32;46.92;100964.31;6271532;22;45291;-84
2022/06/21 09:29:21;;;;;;;;;17.25;14.25;;;;;24.46;47.12;100959.63;6245693;22;45372;-84
2022/06/21 09:32:08;;;;;;;;;20.25;17.00;;;;;24.63;47.24;100959.09;6243550;22;45354;-85
2022/06/21 09:34:42;;;;;;;;;16.25;15.25;;;;;24.61;46.29;100953.06;6244213;22;47168;-85
2022/06/21 09:37:10;;;;;;;;;14.00;13.25;;;;;24.54;46.49;100963.38;6245635;22;45892;-85
2022/06/21 09:39:43;;;;;;;;;15.50;14.25;;;;;24.52;46.87;100967.16;6272594;22;45367;-85
2022/06/21 09:42:32;;;;;;;;;13.00;13.00;;;;;24.68;46.62;100964.03;6245711;22;45586;-84
2022/06/21 09:45:10;;;;;;;;;18.00;16.50;;;;;24.91;45.87;100956.75;6245963;22;45319;-85
2022/06/21 09:48:01;;;;;;;;;17.00;15.25;;;;;25.12;45.95;100949.53;6243844;22;45749;-84
2022/06/21 09:50:32;;;;;;;;;16.75;15.00;;;;;25.07;45.82;100942.94;6245506;22;45304;-83
2022/06/21 09:53:54;;;;;;;;;16.75;15.25;;;;;24.89;45.46;100945.38;6272858;22;45295;-85
2022/06/21 09:56:37;;;;;;;;;18.25;17.00;;;;;24.84;46.80;100948.44;6207163;22;45280;-86
2022/06/21 09:59:06;;;;;;;;;16.50;16.50;;;;;25.07;46.13;100946.47;6183398;22;45380;-85
2022/06/21 10:01:35;;;;;;;;;16.75;16.25;;;;;25.32;45.86;100949.66;6183464;22;45333;-86
2022/06/21 10:04:10;;;;;;;;;19.25;17.00;;;;;25.40;45.27;100948.97;6183487;22;45642;-86
2022/06/21 10:06:48;;;;;;;;;17.25;15.25;;;;;25.35;45.30;100945.88;6208041;22;45687;-86
2022/06/21 10:09:22;;;;;;;;;19.50;15.00;;;;;25.28;44.93;100935.78;6208904;22;45833;-87
2022/06/21 10:11:53;;;;;;;;;19.00;16.50;;;;;25.19;45.05;100927.72;6208281;22;45342;-85
2022/06/21 10:14:41;;;;;;;;;17.00;15.00;;;;;25.14;45.63;100925.44;6208848;22;45522;-83
2022/06/21 10:17:14;;;;;;;;;14.00;12.75;;;;;25.06;45.44;100925.28;6208159;22;46551;-82
2022/06/21 10:19:57;;;;;;;;;20.25;17.75;;;;;24.95;47.17;100923.56;6208786;22;45316;-83
2022/06/21 10:22:37;;;;;;;;;16.00;15.00;;;;;24.87;46.52;100918.03;6208318;22;45330;-82
2022/06/21 10:25:08;;;;;;;;;16.00;14.75;;;;;24.78;46.56;100914.38;6207793;22;45439;-84
2022/06/21 10:27:40;;;;;;;;;19.25;17.00;;;;;24.72;46.69;100914.88;6252744;22;46305;-84
2022/06/21 10:30:29;;;;;;;;;13.75;12.00;;;;;24.66;46.91;100908.25;6272515;22;45594;-83
2022/06/21 10:33:06;;;;;;;;;15.50;14.50;;;;;24.58;46.62;100915.22;6245232;22;45260;-83
2022/06/21 10:35:48;;;;;;;;;17.00;14.00;;;;;24.48;47.03;100905.34;6245475;22;45465;-84
2022/06/21 10:38:13;;;;;;;;;17.25;16.50;;;;;24.44;47.37;100889.75;6245059;22;45503;-85
2022/06/21 10:41:31;;;;;;;;;19.75;19.00;;;;;24.37;47.65;100888.59;6271957;22;45374;-83
2022/06/21 10:43:59;;;;;;;;;16.75;16.25;;;;;24.35;47.76;100888.75;6207906;22;45293;-84
2022/06/21 10:46:29;;;;;;;;;16.75;15.75;;;;;24.32;48.17;100879.19;6182633;22;45316;-83
2022/06/21 10:48:57;;;;;;;;;17.00;15.50;;;;;24.34;47.62;100879.91;6208720;22;46182;-84
2022/06/21 10:51:48;;;;;;;;;14.75;12.25;;;;;24.34;47.71;100877.25;6208222;22;45715;-84
2022/06/21 10:54:21;;;;;;;;;18.50;16.50;;;;;24.25;47.71;100882.50;6182534;22;45293;-84
2022/06/21 10:57:14;;;;;;;;;14.75;14.75;;;;;24.23;48.28;100882.63;6207783;22;45136;-83
2022/06/21 11:02:54;;;;;;;;;15.25;13.75;;;;;24.60;48.78;100874.19;6207667;22;45800;-83
2022/06/21 11:05:34;;;;;;;;;14.00;11.75;;;;;24.82;48.03;100875.00;6208548;22;45402;-82
2022/06/21 11:07:59;;;;;;;;;10.75;10.50;;;;;24.93;47.89;100869.59;6182686;22;45373;-82
2022/06/21 11:10:29;;;;;;;;;13.33;12.00;;;;;25.06;48.55;100880.00;6208532;22;46254;-82
2022/06/21 11:12:56;;;;;;;;;15.00;12.00;;;;;25.22;48.05;100869.69;6208294;22;45432;-82
2022/06/21 11:15:45;;;;;;;;;12.00;11.00;;;;;25.45;47.41;100867.66;6182552;22;45272;-82
2022/06/21 11:18:51;;;;;;;;;10.75;10.50;;;;;25.75;47.29;100870.34;6227383;22;45263;-82
2022/06/21 11:21:37;;;;;;;;;12.50;12.50;;;;;26.04;47.22;100857.88;6272194;22;46588;-83
2022/06/21 11:24:25;;;;;;;;;12.50;12.50;;;;;26.34;47.82;100860.50;6271935;22;45588;-82
2022/06/21 11:26:59;;;;;;;;;12.00;10.00;;;;;26.59;45.52;100864.34;6272391;22;45298;-82
2022/06/21 11:29:32;;;;;;;;;13.25;10.75;;;;;26.79;44.86;100862.50;6272163;22;45247;-82
2022/06/21 11:32:31;;;;;;;;;15.75;12.75;;;;;27.36;45.50;100859.69;6273007;22;46245;-87
2022/06/21 11:35:17;;;;;;;;;14.50;12.00;;;;;31.24;41.01;100869.50;6273510;22;45685;-82
2022/06/21 11:38:03;;;;;;;;;16.00;12.75;;;;;35.00;36.10;100877.44;6245757;22;45254;-83
2022/06/21 11:40:46;;;;;;;;;10.75;10.50;;;;;37.86;32.45;100878.03;6246655;22;45331;-83
2022/06/21 11:43:39;;;;;;;;;15.50;12.00;;;;;40.14;27.84;100877.66;6273731;22;45377;-83
2022/06/21 11:46:14;;;;;;;;;11.25;10.00;;;;;42.03;26.04;100881.56;6245964;22;45278;-81
2022/06/21 11:48:48;;;;;;;;;10.50;10.50;;;;;43.09;24.41;100878.63;6273677;22;45365;-81
2022/06/21 11:51:29;;;;;;;;;16.00;13.50;;;;;44.08;23.29;100889.34;6273511;22;45506;-80
2022/06/21 11:54:13;;;;;;;;;11.25;11.25;;;;;45.20;21.92;100883.50;6273406;22;46744;-81
2022/06/21 11:57:11;;;;;;;;;10.25;8.75;;;;;46.16;19.29;100883.78;6246070;22;45714;-80
2022/06/21 11:59:45;;;;;;;;;18.50;12.50;;;;;46.65;20.12;100890.47;6246088;22;45370;-81
2022/06/21 12:02:32;;;;;;;;;12.50;10.25;;;;;47.03;17.67;100885.34;6271650;22;45348;-81